Taylorsville, Kentucky
Current Conditions -  °F | °C
As of 3:00 AM on Thursday 27 Nov 2014 (Local Time) from KLOU Reporting Station
Light Snow Light Snow  
Wind Chill: 26°   Ceiling: 700
Heat Index: 32°   Visibility: 1.5mi
Dew Point: 30°   Wind: 7mph
Humidity: 92%   Direction: 340°NNW
Pressure: 30.11"   Gusts: NA
Location:  38.03°N, 85.34°W
Report Text: KLOU 270800Z AUTO 34006KT 1 1/2SM -SN BR BKN007 OVC019 00/M01 A3011 RMK AO2 P0000 T00001011
Loading
Personal Weather Stations






























Interactive Weather Map New forecast layout! Learn more

10-Day Weather Forecast

Advertisements
Track Severe Weather on mobile